This is the latest recevied weather packets stored in our database for station/object EA5BZ. If no packets are shown the sender has not sent any weather packets the latest 10 day(s).
| Time | Temp. | Humidity | Pressure | Rain* | Wind** | Luminosity | Snow |
|---|---|---|---|---|---|---|---|
| 1777484416 | 18.89° C | 80% | 1012.2 hPa | 0 mm | - | - | - |
| 1777481418 | 20° C | 75% | 1011.5 hPa | 0 mm | - | - | - |
| 1777479657 | 20.56° C | 73% | 1011.6 hPa | 0 mm | - | - | - |
| 1777479317 | 20.56° C | 73% | 1011.6 hPa | 0 mm | - | - | - |
| 1777477517 | 21.11° C | 70% | 1011.3 hPa | 0 mm | - | - | - |
| 1777476637 | 21.67° C | 69% | 1011.2 hPa | 0 mm | - | - | - |
| 1777476017 | 21.11° C | 69% | 1011.3 hPa | 0 mm | - | - | - |
| 1777475117 | 21.67° C | 68% | 1011.3 hPa | 0 mm | - | - | - |
| 1777474817 | 21.67° C | 67% | 1011.3 hPa | 0 mm | - | - | - |
| 1777473017 | 21.67° C | 68% | 1011.2 hPa | 0 mm | - | - | - |
| 1777472717 | 21.67° C | 68% | 1011.2 hPa | 0 mm | - | - | - |
| 1777471517 | 21.11° C | 69% | 1011.4 hPa | 0 mm | - | - | - |
| 1777470617 | 21.11° C | 70% | 1011.5 hPa | 0 mm | - | - | - |
| 1777469717 | 20.56° C | 71% | 1011.6 hPa | 0 mm | - | - | - |
| 1777467037 | 21.67° C | 69% | 1011.4 hPa | 0 mm | - | - | - |
| 1777466717 | 21.67° C | 69% | 1011.3 hPa | 0 mm | - | - | - |
| 1777466117 | 22.22° C | 68% | 1011.4 hPa | 0 mm | - | - | - |
| 1777464017 | 22.22° C | 68% | 1011.6 hPa | 0 mm | - | - | - |
| 1777461917 | 22.22° C | 64% | 1011.7 hPa | 0 mm | - | - | - |
| 1777461317 | 22.22° C | 65% | 1011.7 hPa | 0 mm | - | - | - |
| 1777460417 | 22.22° C | 65% | 1011.8 hPa | 0 mm | - | - | - |
| 1777460117 | 21.67° C | 65% | 1011.8 hPa | 0 mm | - | - | - |
| 1777459517 | 21.67° C | 67% | 1011.8 hPa | 0 mm | - | - | - |
| 1777457717 | 22.22° C | 65% | 1011.9 hPa | 0 mm | - | - | - |
| 1777456817 | 21.11° C | 67% | 1012 hPa | 0 mm | - | - | - |
* Rain latest hour (hover to see other rain measurements)
** Current wind speed in m/s (hover to see current wind gust speed)